Ceylon — 9VMU6 — position and weather

sailwx.info

Track history (hours):
 
Tides and Currents Weather Stations Pressure Air Temp Water Temp Dewpoint Dewpoint Depression Visibility Wind Speed Wind Dir Waves Ship Positions

Ceylon

Last reported at 2017-Jan-22 03:31 UTC. Time now 2017-Jan-22 03:42 UTC.
Position S 03°09' W 059°55'.

Length 180 m; draft 9 m.

Type: Tanker. MMSI: 563847000.

Date/timePositionNaut miles runAvg speedWind from/ knotsBaromVisibWave heightAir tempDewpointWater temp
2017-Jan-22 03:31S 03°09' W 059°55'0 0.0
2017-Jan-22 02:31S 03°09' W 059°55'0 0.0
2017-Jan-22 01:28S 03°09' W 059°55'0 0.0
2017-Jan-22 00:32S 03°09' W 059°55'0 0.0
2017-Jan-21 23:32S 03°09' W 059°55'0 0.0
2017-Jan-21 22:28S 03°09' W 059°55'0 0.0
2017-Jan-21 21:28S 03°09' W 059°55'0 0.0
2017-Jan-21 20:28S 03°09' W 059°55'0 0.0
2017-Jan-21 19:31S 03°09' W 059°55'0 0.0
2017-Jan-21 18:31S 03°09' W 059°55'0 0.0
2017-Jan-21 17:25S 03°09' W 059°55'0 0.0
2017-Jan-21 16:19S 03°09' W 059°55'0 0.0
2017-Jan-21 15:25S 03°09' W 059°55'0 0.0
2017-Jan-21 14:28S 03°09' W 059°55'0 0.0
2017-Jan-21 13:28S 03°09' W 059°55'0 0.0
2017-Jan-21 12:22S 03°09' W 059°55'0 0.0
2017-Jan-21 11:28S 03°09' W 059°55'0 0.0
2017-Jan-21 10:28S 03°09' W 059°55'0 0.0
2017-Jan-21 09:28S 03°09' W 059°55'0 0.0
2017-Jan-21 08:31S 03°09' W 059°55'0 0.0
2017-Jan-21 07:28S 03°09' W 059°55'0 0.0
2017-Jan-21 06:31S 03°09' W 059°55'0 0.0
2017-Jan-21 05:28S 03°09' W 059°55'0 0.0
2017-Jan-21 04:25S 03°09' W 059°55'0 0.0
2017-Jan-21 03:28S 03°09' W 059°55'0 0.0
2017-Jan-21 02:25S 03°09' W 059°55'0 0.0
2017-Jan-21 01:28S 03°09' W 059°55'0 0.0
2017-Jan-21 00:28S 03°09' W 059°55'0 0.0
2017-Jan-20 23:31S 03°09' W 059°55'0 0.0
2017-Jan-20 22:28S 03°09' W 059°55'0 0.0
2017-Jan-20 21:31S 03°09' W 059°55'0 0.0
2017-Jan-20 20:31S 03°09' W 059°55'0 0.0
2017-Jan-20 19:31S 03°09' W 059°55'0 0.0
2017-Jan-20 18:31S 03°09' W 059°55'0 0.0
2017-Jan-20 17:31S 03°09' W 059°55'0 0.0
2017-Jan-20 16:22S 03°09' W 059°55'0 0.0
2017-Jan-20 15:28S 03°09' W 059°55'0 0.0
2017-Jan-20 14:28S 03°09' W 059°55'0 0.0
2017-Jan-20 13:28S 03°09' W 059°55'0 0.0
2017-Jan-20 12:31S 03°09' W 059°55'0 0.0
2017-Jan-20 11:28S 03°09' W 059°55'0 0.0
2017-Jan-20 10:28S 03°09' W 059°55'0 0.0
2017-Jan-20 08:28S 03°09' W 059°55'0 0.0
2017-Jan-20 07:25S 03°09' W 059°55'0 0.0
2017-Jan-20 05:25S 03°09' W 059°55'0 0.0
2017-Jan-20 04:31S 03°09' W 059°55'0 0.0
2017-Jan-20 03:28S 03°09' W 059°55'0 0.0
2017-Jan-20 02:28S 03°09' W 059°55'0 0.0
2017-Jan-20 01:10S 03°09' W 059°55'0 0.0
2017-Jan-20 00:28S 03°09' W 059°55'0 0.0
2017-Jan-19 23:31S 03°09' W 059°55'0 0.0
2017-Jan-19 22:28S 03°09' W 059°55'0 0.0
2017-Jan-19 21:31S 03°09' W 059°55'0 0.0
2017-Jan-19 20:13S 03°09' W 059°55'0 0.0
2017-Jan-19 19:28S 03°09' W 059°55'0 0.0
2017-Jan-19 17:31S 03°09' W 059°55'0 0.0
2017-Jan-19 16:28S 03°09' W 059°55'0 0.0
2017-Jan-19 15:22S 03°09' W 059°55'0 0.1
2017-Jan-19 14:25S 03°09' W 059°55'0 0.1
2017-Jan-19 13:31S 03°09' W 059°55'0 0.0
2017-Jan-19 12:31S 03°09' W 059°55'0 0.0
2017-Jan-19 11:28S 03°09' W 059°55'0 0.0
2017-Jan-19 10:28S 03°09' W 059°55'0 0.0
2017-Jan-19 09:28S 03°09' W 059°55'0 0.0
2017-Jan-19 08:28S 03°09' W 059°55'0 0.0
2017-Jan-19 07:28S 03°09' W 059°55'1 1.0
2017-Jan-19 06:33S 03°08' W 059°55'  
2017-Jan-16 09:33S 00°13' W 051°02'1212.3
2017-Jan-16 08:34S 00°00' W 051°02'5 5.0
2017-Jan-16 07:31S 00°04' W 051°06'0 0.1
2017-Jan-16 06:31S 00°04' W 051°06'0 0.2
2017-Jan-16 05:31S 00°04' W 051°06'1 0.7
2017-Jan-16 04:30S 00°04' W 051°06'1 0.7
2017-Jan-16 03:30S 00°04' W 051°06'0 0.0
2017-Jan-16 02:30S 00°04' W 051°06'1 1.1
2017-Jan-16 01:34S 00°03' W 051°05'7 7.4
2017-Jan-16 00:34N 00°03' W 051°00'1010.3
2017-Jan-15 23:33N 00°10' W 050°53'1411.6
2017-Jan-15 22:23N 00°13' W 050°40'172 7.8
2017-Jan-15 00:22S 00°09' W 047°49'910.9
2017-Jan-14 23:33S 00°18' W 047°49'7 7.3
2017-Jan-14 22:33S 00°25' W 047°47'7 7.1
2017-Jan-14 21:33S 00°24' W 047°39'1 0.7
2017-Jan-14 20:33S 00°24' W 047°39'2 1.6
2017-Jan-14 19:33S 00°22' W 047°39'7 6.9
2017-Jan-14 18:33S 00°18' W 047°33'1110.6
2017-Jan-14 17:33S 00°12' W 047°24'  
Track history (hours):
 
Tides and Currents Weather Stations Pressure Air Temp Water Temp Dewpoint Dewpoint Depression Visibility Wind Speed Wind Dir Waves Ship Positions

Ceylon

Last reported at 2017-Jan-22 03:31 UTC. Time now 2017-Jan-22 03:42 UTC.
Position S 03°09' W 059°55'.

Length 180 m; draft 9 m.

Type: Tanker. MMSI: 563847000.

Date/timePositionNaut miles runAvg speedWind from/ knotsBaromVisibWave heightAir tempDewpointWater temp
2017-Jan-22 03:31S 03°09' W 059°55'0 0.0
2017-Jan-22 02:31S 03°09' W 059°55'0 0.0
2017-Jan-22 01:28S 03°09' W 059°55'0 0.0
2017-Jan-22 00:32S 03°09' W 059°55'0 0.0
2017-Jan-21 23:32S 03°09' W 059°55'0 0.0
2017-Jan-21 22:28S 03°09' W 059°55'0 0.0
2017-Jan-21 21:28S 03°09' W 059°55'0 0.0
2017-Jan-21 20:28S 03°09' W 059°55'0 0.0
2017-Jan-21 19:31S 03°09' W 059°55'0 0.0
2017-Jan-21 18:31S 03°09' W 059°55'0 0.0
2017-Jan-21 17:25S 03°09' W 059°55'0 0.0
2017-Jan-21 16:19S 03°09' W 059°55'0 0.0
2017-Jan-21 15:25S 03°09' W 059°55'0 0.0
2017-Jan-21 14:28S 03°09' W 059°55'0 0.0
2017-Jan-21 13:28S 03°09' W 059°55'0 0.0
2017-Jan-21 12:22S 03°09' W 059°55'0 0.0
2017-Jan-21 11:28S 03°09' W 059°55'0 0.0
2017-Jan-21 10:28S 03°09' W 059°55'0 0.0
2017-Jan-21 09:28S 03°09' W 059°55'0 0.0
2017-Jan-21 08:31S 03°09' W 059°55'0 0.0
2017-Jan-21 07:28S 03°09' W 059°55'0 0.0
2017-Jan-21 06:31S 03°09' W 059°55'0 0.0
2017-Jan-21 05:28S 03°09' W 059°55'0 0.0
2017-Jan-21 04:25S 03°09' W 059°55'0 0.0
2017-Jan-21 03:28S 03°09' W 059°55'0 0.0
2017-Jan-21 02:25S 03°09' W 059°55'0 0.0
2017-Jan-21 01:28S 03°09' W 059°55'0 0.0
2017-Jan-21 00:28S 03°09' W 059°55'0 0.0
2017-Jan-20 23:31S 03°09' W 059°55'0 0.0
2017-Jan-20 22:28S 03°09' W 059°55'0 0.0
2017-Jan-20 21:31S 03°09' W 059°55'0 0.0
2017-Jan-20 20:31S 03°09' W 059°55'0 0.0
2017-Jan-20 19:31S 03°09' W 059°55'0 0.0
2017-Jan-20 18:31S 03°09' W 059°55'0 0.0
2017-Jan-20 17:31S 03°09' W 059°55'0 0.0
2017-Jan-20 16:22S 03°09' W 059°55'0 0.0
2017-Jan-20 15:28S 03°09' W 059°55'0 0.0
2017-Jan-20 14:28S 03°09' W 059°55'0 0.0
2017-Jan-20 13:28S 03°09' W 059°55'0 0.0
2017-Jan-20 12:31S 03°09' W 059°55'0 0.0
2017-Jan-20 11:28S 03°09' W 059°55'0 0.0
2017-Jan-20 10:28S 03°09' W 059°55'0 0.0
2017-Jan-20 08:28S 03°09' W 059°55'0 0.0
2017-Jan-20 07:25S 03°09' W 059°55'0 0.0
2017-Jan-20 05:25S 03°09' W 059°55'0 0.0
2017-Jan-20 04:31S 03°09' W 059°55'0 0.0
2017-Jan-20 03:28S 03°09' W 059°55'0 0.0
2017-Jan-20 02:28S 03°09' W 059°55'0 0.0
2017-Jan-20 01:10S 03°09' W 059°55'0 0.0
2017-Jan-20 00:28S 03°09' W 059°55'0 0.0
2017-Jan-19 23:31S 03°09' W 059°55'0 0.0
2017-Jan-19 22:28S 03°09' W 059°55'0 0.0
2017-Jan-19 21:31S 03°09' W 059°55'0 0.0
2017-Jan-19 20:13S 03°09' W 059°55'0 0.0
2017-Jan-19 19:28S 03°09' W 059°55'0 0.0
2017-Jan-19 17:31S 03°09' W 059°55'0 0.0
2017-Jan-19 16:28S 03°09' W 059°55'0 0.0
2017-Jan-19 15:22S 03°09' W 059°55'0 0.1
2017-Jan-19 14:25S 03°09' W 059°55'0 0.1
2017-Jan-19 13:31S 03°09' W 059°55'0 0.0
2017-Jan-19 12:31S 03°09' W 059°55'0 0.0
2017-Jan-19 11:28S 03°09' W 059°55'0 0.0
2017-Jan-19 10:28S 03°09' W 059°55'0 0.0
2017-Jan-19 09:28S 03°09' W 059°55'0 0.0
2017-Jan-19 08:28S 03°09' W 059°55'0 0.0
2017-Jan-19 07:28S 03°09' W 059°55'1 1.0
2017-Jan-19 06:33S 03°08' W 059°55'  
2017-Jan-16 09:33S 00°13' W 051°02'1212.3
2017-Jan-16 08:34S 00°00' W 051°02'5 5.0
2017-Jan-16 07:31S 00°04' W 051°06'0 0.1
2017-Jan-16 06:31S 00°04' W 051°06'0 0.2
2017-Jan-16 05:31S 00°04' W 051°06'1 0.7
2017-Jan-16 04:30S 00°04' W 051°06'1 0.7
2017-Jan-16 03:30S 00°04' W 051°06'0 0.0
2017-Jan-16 02:30S 00°04' W 051°06'1 1.1
2017-Jan-16 01:34S 00°03' W 051°05'7 7.4
2017-Jan-16 00:34N 00°03' W 051°00'1010.3
2017-Jan-15 23:33N 00°10' W 050°53'1411.6
2017-Jan-15 22:23N 00°13' W 050°40'172 7.8
2017-Jan-15 00:22S 00°09' W 047°49'910.9
2017-Jan-14 23:33S 00°18' W 047°49'7 7.3
2017-Jan-14 22:33S 00°25' W 047°47'7 7.1
2017-Jan-14 21:33S 00°24' W 047°39'1 0.7
2017-Jan-14 20:33S 00°24' W 047°39'2 1.6
2017-Jan-14 19:33S 00°22' W 047°39'7 6.9
2017-Jan-14 18:33S 00°18' W 047°33'1110.6
2017-Jan-14 17:33S 00°12' W 047°24'  

Dump ship's entire track history